LFBI/PIS METAR and TAF weather

Enter ICAO airport designator
Station Type Date Time Source
LFBI METAR 2019/02/18 04:00 UTC NOAA

LFBI 180400Z AUTO 16007KT CAVOK 05/01 Q1018 NOSIG


Station Type Date Time Source
LFBI Decoded METAR 2019/02/18 04:00 UTC NOAA

Poitiers, France (LFBI) 46-35N 000-19E 120M
Feb 17, 2019 - 11:00 PM EST / 2019.02.18 0400 UTC
Wind: from the SSE (160 degrees) at 8 MPH (7 KT):0
Visibility: greater than 7 mile(s):0
Temperature: 41 F (5 C)
Dew Point: 33 F (1 C)
Relative Humidity: 75%
Pressure (altimeter): 30.06 in. Hg (1018 hPa)
ob: LFBI 180400Z AUTO 16007KT CAVOK 05/01 Q1018 NOSIG
cycle: 4

Station Type Date Time Source
LFBI TAF 2019/02/17 18:21 UTC NOAA

TAF LFBI 171700Z 1718/1818 18005KT CAVOK
BECMG 1809/1812 18015KT


Example: see airport list